Time;durP1;ratioP1;P1;durP2;ratioP2;P2;SDS_P1;SDS_P2;PMS_P1;PMS_P2;Temp;Humidity;BMP_temperature;BMP_pressure;BME280_temperature;BME280_humidity;BME280_pressure;Samples;Min_cycle;Max_cycle;Signal;HPM_P1;HPM_P2
2022/12/01 00:01:36;;;;;;;0.10;0.10;;;5.00;99.90;3.70;97615.00;;;;5034152;28;20245;-72
2022/12/01 00:04:05;;;;;;;0.10;0.10;;;5.00;99.90;3.70;97626.00;;;;5033936;28;20215;-72
2022/12/01 00:06:33;;;;;;;0.10;0.10;;;4.90;99.90;3.70;97625.00;;;;5033840;28;20199;-72
2022/12/01 00:11:48;;;;;;;0.10;0.10;;;5.00;99.90;3.80;97625.00;;;;5025725;28;20191;-72
2022/12/01 00:14:17;;;;;;;0.10;0.10;;;5.00;99.90;3.80;97619.00;;;;5033997;28;20261;-72
2022/12/01 00:16:45;;;;;;;0.00;0.00;;;5.00;99.90;3.80;97624.00;;;;5033618;28;20203;-72
2022/12/01 00:19:13;;;;;;;0.10;0.10;;;5.00;99.90;3.80;97623.00;;;;5029435;28;20207;-73
2022/12/01 00:21:42;;;;;;;0.10;0.10;;;5.00;99.90;3.70;97604.00;;;;5033230;28;20245;-73
2022/12/01 00:24:11;;;;;;;0.10;0.10;;;4.90;99.90;3.70;97609.00;;;;5014781;28;20251;-72
2022/12/01 00:26:39;;;;;;;0.10;0.10;;;5.00;99.90;3.70;97603.00;;;;5028504;28;20547;-72
2022/12/01 00:29:08;;;;;;;0.10;0.10;;;5.00;99.90;3.70;97620.00;;;;5013684;28;20242;-72
2022/12/01 00:31:39;;;;;;;0.10;0.10;;;4.90;99.90;3.80;97605.00;;;;5017274;28;20576;-72
2022/12/01 00:34:12;;;;;;;0.10;0.10;;;5.00;99.90;3.80;97623.00;;;;5033502;28;20264;-71
2022/12/01 00:36:40;;;;;;;0.10;0.10;;;5.00;99.90;3.80;97610.00;;;;5031888;28;20567;-72
2022/12/01 00:39:09;;;;;;;0.10;0.10;;;5.00;99.90;3.80;97613.00;;;;5032646;28;20195;-72
2022/12/01 00:41:38;;;;;;;0.10;0.10;;;5.00;99.90;3.80;97608.00;;;;5032910;28;20597;-72
2022/12/01 00:44:06;;;;;;;0.10;0.10;;;5.00;99.90;3.80;97627.00;;;;5048109;28;20269;-72
2022/12/01 00:46:34;;;;;;;0.10;0.10;;;5.00;99.90;3.80;97621.00;;;;5033037;28;20231;-72
2022/12/01 00:49:05;;;;;;;0.10;0.10;;;5.00;99.90;3.70;97647.00;;;;5028716;28;20223;-72
2022/12/01 00:51:33;;;;;;;0.10;0.10;;;5.00;99.90;3.80;97627.00;;;;5018900;28;20254;-73
2022/12/01 00:54:01;;;;;;;0.10;0.10;;;5.00;99.90;3.90;97632.00;;;;5023412;28;20286;-72
2022/12/01 00:56:29;;;;;;;0.10;0.10;;;5.00;99.90;3.90;97639.00;;;;5032908;28;20261;-72
2022/12/01 00:58:58;;;;;;;0.03;0.03;;;5.00;99.90;3.90;97641.00;;;;5032657;28;20210;-72
2022/12/01 01:01:26;;;;;;;0.10;0.10;;;5.00;99.90;3.90;97640.00;;;;5032963;28;20203;-72
2022/12/01 01:03:54;;;;;;;0.10;0.10;;;5.00;99.90;3.80;97627.00;;;;5032700;28;20290;-73
2022/12/01 01:06:24;;;;;;;0.10;0.10;;;5.00;99.90;3.80;97639.00;;;;5033049;28;20188;-73
2022/12/01 01:08:52;;;;;;;0.10;0.10;;;5.00;99.90;3.90;97628.00;;;;5031262;28;20239;-73
2022/12/01 01:11:20;;;;;;;0.10;0.10;;;5.00;99.90;3.90;97634.00;;;;5032716;28;20249;-73
2022/12/01 01:13:48;;;;;;;0.10;0.10;;;5.00;99.90;3.90;97631.00;;;;5022022;28;20303;-73
2022/12/01 01:16:20;;;;;;;0.10;0.10;;;5.00;99.90;3.90;97640.00;;;;5024991;28;20207;-73
2022/12/01 01:18:48;;;;;;;0.10;0.10;;;5.00;99.90;3.80;97632.00;;;;5031396;28;20207;-72
2022/12/01 01:21:20;;;;;;;0.10;0.10;;;5.00;99.90;3.80;97646.00;;;;5032961;28;20192;-72
2022/12/01 01:23:51;;;;;;;0.10;0.10;;;5.00;99.90;3.80;97570.00;;;;5032463;28;20294;-73
2022/12/01 01:26:22;;;;;;;0.10;0.10;;;5.00;99.90;3.70;97646.00;;;;5032492;28;20195;-72
2022/12/01 01:28:52;;;;;;;0.10;0.10;;;5.00;99.90;3.70;97635.00;;;;5031757;28;20276;-73
2022/12/01 01:31:23;;;;;;;0.10;0.10;;;4.90;99.90;3.60;97612.00;;;;5032457;28;20643;-73
2022/12/01 01:33:52;;;;;;;0.10;0.10;;;4.90;99.90;3.70;97630.00;;;;5032001;28;20223;-72
2022/12/01 01:36:20;;;;;;;0.10;0.10;;;4.90;99.90;3.70;97632.00;;;;5030959;28;20195;-74
2022/12/01 01:38:51;;;;;;;0.10;0.10;;;5.00;99.90;3.70;97640.00;;;;5031669;28;20203;-72
2022/12/01 01:41:20;;;;;;;0.10;0.10;;;4.90;99.90;3.50;97631.00;;;;5032252;28;20253;-72
2022/12/01 01:43:50;;;;;;;0.10;0.10;;;5.00;99.90;3.80;97591.00;;;;5021836;28;20246;-73
2022/12/01 01:46:22;;;;;;;0.10;0.10;;;5.00;99.90;3.80;97646.00;;;;5024562;28;20199;-73
2022/12/01 01:48:56;;;;;;;0.10;0.10;;;5.00;99.90;3.80;97652.00;;;;5030920;28;20992;-73
2022/12/01 01:51:36;;;;;;;0.10;0.10;;;5.00;99.90;3.80;97647.00;;;;5022445;28;20569;-73
2022/12/01 01:54:18;;;;;;;0.10;0.10;;;5.00;99.90;3.80;97659.00;;;;5031834;28;20237;-73
2022/12/01 01:56:49;;;;;;;0.10;0.10;;;5.00;99.90;3.80;97663.00;;;;5031958;28;20221;-73
2022/12/01 01:59:22;;;;;;;0.10;0.10;;;5.00;99.90;3.70;97636.00;;;;5032303;28;20191;-72
2022/12/01 02:02:01;;;;;;;0.10;0.10;;;4.90;99.90;3.70;97641.00;;;;5032001;28;20668;-73
2022/12/01 02:04:30;;;;;;;0.08;0.08;;;4.90;99.90;3.60;97644.00;;;;5012174;28;20219;-73
2022/12/01 02:06:58;;;;;;;0.10;0.10;;;4.80;99.90;3.60;97646.00;;;;5030625;28;20195;-73
2022/12/01 02:09:28;;;;;;;0.10;0.10;;;4.80;99.90;3.60;97642.00;;;;5045921;28;20223;-73
2022/12/01 02:12:16;;;;;;;0.10;0.10;;;4.80;99.90;3.60;97640.00;;;;5032087;28;20226;-73
2022/12/01 02:15:08;;;;;;;0.10;0.10;;;4.80;99.90;3.60;97640.00;;;;5012474;28;20215;-72
2022/12/01 02:17:47;;;;;;;0.10;0.10;;;4.80;99.90;3.60;97648.00;;;;5023726;28;20199;-72
2022/12/01 02:21:09;;;;;;;0.10;0.10;;;4.70;99.90;3.50;97639.00;;;;5030434;28;20257;-71
2022/12/01 02:24:48;;;;;;;0.10;0.10;;;4.70;99.90;3.50;97650.00;;;;5020041;28;20281;-72
2022/12/01 02:27:33;;;;;;;0.10;0.10;;;4.70;99.90;3.40;97655.00;;;;5031409;28;20194;-72
2022/12/01 02:30:13;;;;;;;0.10;0.10;;;4.60;99.90;3.40;97599.00;;;;5031422;28;20229;-74
2022/12/01 02:33:06;;;;;;;0.10;0.10;;;4.60;99.90;3.40;97648.00;;;;5030947;28;20250;-72
2022/12/01 02:35:47;;;;;;;0.10;0.10;;;4.60;99.90;3.40;97648.00;;;;5031262;28;20892;-72
2022/12/01 02:38:25;;;;;;;0.10;0.10;;;4.60;99.90;3.30;97641.00;;;;5030958;28;20575;-72
2022/12/01 02:41:04;;;;;;;0.10;0.10;;;4.50;99.90;3.20;97636.00;;;;5031374;28;20195;-72
2022/12/01 02:43:43;;;;;;;0.10;0.10;;;4.50;99.90;3.10;97638.00;;;;5031053;28;20218;-72
2022/12/01 02:46:18;;;;;;;0.10;0.10;;;4.40;99.90;3.00;97637.00;;;;5031455;28;20183;-71
2022/12/01 02:48:52;;;;;;;0.10;0.10;;;4.30;99.90;3.00;97649.00;;;;5030624;28;20309;-71
2022/12/01 02:51:27;;;;;;;0.10;0.10;;;4.30;99.90;3.00;97633.00;;;;5031350;28;20206;-72
2022/12/01 02:53:56;;;;;;;0.10;0.10;;;4.30;99.90;3.00;97635.00;;;;5018985;28;20780;-72
2022/12/01 02:56:25;;;;;;;0.10;0.10;;;4.30;99.90;3.00;97641.00;;;;5025124;28;20701;-71
2022/12/01 02:58:54;;;;;;;0.10;0.10;;;4.30;99.90;3.00;97637.00;;;;5030713;28;20595;-72
2022/12/01 03:01:49;;;;;;;0.10;0.10;;;4.30;99.90;3.00;97630.00;;;;5031043;28;20663;-72
2022/12/01 03:04:41;;;;;;;0.10;0.10;;;4.30;99.90;3.00;97649.00;;;;5011612;28;20636;-72
2022/12/01 03:07:31;;;;;;;0.10;0.10;;;4.30;99.90;3.10;97641.00;;;;5018382;28;20668;-72
2022/12/01 03:10:16;;;;;;;0.10;0.10;;;4.30;99.90;3.00;97635.00;;;;5017698;28;20223;-72
2022/12/01 03:13:01;;;;;;;0.08;0.08;;;4.20;99.90;3.00;97632.00;;;;5031157;28;20206;-72
2022/12/01 03:15:37;;;;;;;0.10;0.10;;;4.20;99.90;3.00;97578.00;;;;5033628;28;20229;-72
2022/12/01 03:18:18;;;;;;;0.10;0.10;;;4.20;99.90;2.90;97631.00;;;;5033110;28;20281;-72
2022/12/01 03:20:58;;;;;;;0.10;0.10;;;4.20;99.90;2.90;97630.00;;;;5034726;28;20198;-72
2022/12/01 03:23:33;;;;;;;0.10;0.10;;;4.20;99.90;2.90;97627.00;;;;5034561;28;20588;-73
2022/12/01 03:26:06;;;;;;;0.10;0.10;;;4.20;99.90;2.90;97630.00;;;;5034604;28;20202;-73
2022/12/01 03:28:41;;;;;;;0.10;0.10;;;4.10;99.90;2.80;97640.00;;;;5033896;28;20203;-72
2022/12/01 03:31:16;;;;;;;0.10;0.10;;;4.10;99.90;2.80;97641.00;;;;5034345;28;20218;-71
2022/12/01 03:33:50;;;;;;;0.10;0.10;;;4.10;99.90;2.80;97626.00;;;;5034389;28;20237;-71
2022/12/01 03:36:27;;;;;;;0.10;0.10;;;4.10;99.90;2.80;97624.00;;;;5033705;28;20202;-72
2022/12/01 03:39:00;;;;;;;0.10;0.10;;;4.10;99.90;2.80;97602.00;;;;5027633;28;20213;-72
2022/12/01 03:41:35;;;;;;;0.10;0.10;;;4.10;99.90;2.80;97642.00;;;;5018893;28;20601;-72
2022/12/01 03:44:11;;;;;;;0.10;0.10;;;4.10;99.90;2.70;97632.00;;;;5032720;28;20288;-72
2022/12/01 03:46:49;;;;;;;0.10;0.10;;;4.00;99.90;2.60;97623.00;;;;5034119;28;20253;-73
2022/12/01 03:49:18;;;;;;;0.10;0.10;;;3.90;99.90;2.70;97553.00;;;;5033613;28;20206;-73
2022/12/01 03:52:04;;;;;;;0.10;0.10;;;4.00;99.90;2.70;97630.00;;;;5034053;28;20241;-72
2022/12/01 03:54:45;;;;;;;0.10;0.10;;;4.00;99.90;2.80;97598.00;;;;5032746;28;20217;-72
2022/12/01 03:57:19;;;;;;;0.10;0.10;;;4.00;99.90;2.80;97637.00;;;;5033852;28;20187;-73
2022/12/01 03:59:48;;;;;;;0.10;0.10;;;4.00;99.90;2.80;97605.00;;;;5034079;28;20244;-72
2022/12/01 04:02:18;;;;;;;0.10;0.10;;;4.10;99.90;2.80;97558.00;;;;5033784;28;20867;-72
2022/12/01 04:04:46;;;;;;;0.10;0.10;;;4.10;99.90;2.80;97637.00;;;;5033835;28;20262;-71
2022/12/01 04:07:15;;;;;;;0.10;0.10;;;4.10;99.90;2.80;97631.00;;;;5033518;28;20198;-72
2022/12/01 04:09:43;;;;;;;0.10;0.10;;;4.10;99.90;2.90;97636.00;;;;5032706;28;20214;-73
2022/12/01 04:12:28;;;;;;;0.10;0.10;;;4.10;99.90;2.90;97629.00;;;;5033769;28;20667;-73
2022/12/01 04:14:57;;;;;;;0.10;0.10;;;4.20;99.90;2.90;97637.00;;;;5013882;28;20223;-71
2022/12/01 04:17:26;;;;;;;0.10;0.10;;;4.20;99.90;3.00;97639.00;;;;5021691;28;20217;-71
2022/12/01 04:19:54;;;;;;;0.10;0.10;;;4.20;99.90;2.90;97640.00;;;;5032293;28;20680;-73
2022/12/01 04:22:25;;;;;;;0.10;0.10;;;4.20;99.90;2.90;97652.00;;;;5033482;28;20616;-72
2022/12/01 04:24:53;;;;;;;0.10;0.10;;;4.20;99.90;2.90;97570.00;;;;5033562;28;20910;-72
2022/12/01 04:27:21;;;;;;;0.10;0.10;;;4.20;99.90;3.00;97632.00;;;;5034393;28;20594;-71
2022/12/01 04:29:50;;;;;;;0.10;0.10;;;4.20;99.90;2.90;97623.00;;;;5033157;28;20215;-71
2022/12/01 04:32:19;;;;;;;0.10;0.10;;;4.20;99.90;2.90;97633.00;;;;5048275;28;20233;-72
2022/12/01 04:34:47;;;;;;;0.10;0.10;;;4.20;99.90;3.00;97630.00;;;;5031900;28;20219;-71
2022/12/01 04:37:15;;;;;;;0.10;0.10;;;4.20;99.90;2.90;97627.00;;;;5033201;28;20187;-72
2022/12/01 04:39:44;;;;;;;0.10;0.10;;;4.10;99.90;2.90;97627.00;;;;5019710;28;20196;-72
2022/12/01 04:42:13;;;;;;;0.10;0.10;;;4.10;99.90;2.90;97627.00;;;;5018188;28;20199;-72
2022/12/01 04:44:41;;;;;;;0.10;0.10;;;4.10;99.90;2.90;97626.00;;;;5033145;28;20207;-72
2022/12/01 04:47:09;;;;;;;0.10;0.10;;;4.10;99.90;2.80;97624.00;;;;5033165;28;20603;-72
2022/12/01 04:49:37;;;;;;;0.10;0.10;;;4.00;99.90;2.70;97625.00;;;;5026467;28;20674;-72
2022/12/01 04:52:06;;;;;;;0.10;0.10;;;4.00;99.90;2.60;97630.00;;;;5032005;28;20732;-72
2022/12/01 04:54:34;;;;;;;0.10;0.10;;;3.90;99.90;2.60;97628.00;;;;5033137;28;20293;-72
2022/12/01 04:57:04;;;;;;;0.10;0.10;;;3.90;99.90;2.50;97636.00;;;;5032831;28;20252;-71
2022/12/01 04:59:32;;;;;;;0.10;0.10;;;3.80;99.90;2.40;97631.00;;;;5032789;28;20191;-72
2022/12/01 05:02:01;;;;;;;0.10;0.10;;;3.70;99.90;2.40;97630.00;;;;5022477;28;20872;-71
2022/12/01 05:04:30;;;;;;;0.10;0.10;;;3.70;99.90;2.40;97644.00;;;;5031363;28;20211;-72
2022/12/01 05:06:58;;;;;;;0.10;0.10;;;3.70;99.90;2.40;97634.00;;;;5036304;28;20202;-71
2022/12/01 05:09:26;;;;;;;0.10;0.10;;;3.70;99.90;2.40;97638.00;;;;5030886;28;20605;-71
2022/12/01 05:11:54;;;;;;;0.10;0.10;;;3.70;99.90;2.30;97633.00;;;;5031796;28;20215;-71
2022/12/01 05:14:23;;;;;;;0.10;0.10;;;3.60;99.90;2.20;97634.00;;;;5032622;28;20626;-72
2022/12/01 05:16:53;;;;;;;0.10;0.10;;;3.60;99.90;2.20;97634.00;;;;5032202;28;20675;-73
2022/12/01 05:22:07;;;;;;;0.10;0.10;;;3.50;99.90;2.10;97645.00;;;;5027670;28;20203;-72
2022/12/01 05:24:35;;;;;;;0.10;0.10;;;3.50;99.90;2.00;97643.00;;;;5032426;28;20635;-72
2022/12/01 05:27:03;;;;;;;0.10;0.10;;;3.40;99.90;2.10;97648.00;;;;5032580;28;20191;-73
2022/12/01 05:29:34;;;;;;;0.10;0.10;;;3.40;99.90;2.00;97647.00;;;;5031818;28;20210;-72
2022/12/01 05:32:02;;;;;;;0.10;0.10;;;3.30;99.90;2.00;97645.00;;;;5032014;28;20222;-73
2022/12/01 05:34:30;;;;;;;0.10;0.10;;;3.30;99.90;2.10;97646.00;;;;5032188;28;20557;-72
2022/12/01 05:36:59;;;;;;;0.10;0.10;;;3.30;99.90;2.10;97647.00;;;;5026479;28;20203;-72
2022/12/01 05:39:27;;;;;;;0.10;0.10;;;3.40;99.90;2.10;97648.00;;;;5018090;28;20249;-73
2022/12/01 05:41:55;;;;;;;0.10;0.10;;;3.40;99.90;2.10;97654.00;;;;5030916;28;20199;-71
2022/12/01 05:44:23;;;;;;;0.10;0.10;;;3.40;99.90;2.10;97654.00;;;;5032035;28;20211;-72
2022/12/01 05:46:52;;;;;;;0.10;0.10;;;3.40;99.90;2.10;97647.00;;;;5031837;28;20195;-73
2022/12/01 05:49:20;;;;;;;0.10;0.10;;;3.40;99.90;2.10;97648.00;;;;5031884;28;20761;-73
2022/12/01 05:51:48;;;;;;;0.10;0.10;;;3.40;99.90;2.00;97648.00;;;;5031843;28;20760;-73
2022/12/01 05:54:16;;;;;;;0.10;0.10;;;3.40;99.90;2.10;97464.00;;;;5030491;28;20714;-73
2022/12/01 05:56:44;;;;;;;0.10;0.10;;;3.30;99.90;2.20;97651.00;;;;5027015;28;20187;-72
2022/12/01 05:59:12;;;;;;;0.10;0.10;;;3.40;99.90;2.10;97645.00;;;;5031180;28;20195;-72
2022/12/01 06:01:40;;;;;;;0.10;0.10;;;3.40;99.90;2.00;97640.00;;;;5032107;28;20199;-72
2022/12/01 06:04:10;;;;;;;0.10;0.10;;;3.40;99.90;2.00;97656.00;;;;5022915;28;20274;-72
2022/12/01 06:06:38;;;;;;;0.10;0.10;;;3.30;99.90;1.90;97655.00;;;;5012214;28;20199;-72
2022/12/01 06:09:07;;;;;;;0.10;0.10;;;3.20;99.90;2.00;97656.00;;;;5030263;28;20206;-72
2022/12/01 06:11:35;;;;;;;0.10;0.10;;;3.30;99.90;2.00;97666.00;;;;5031945;28;20219;-72
2022/12/01 06:14:03;;;;;;;0.10;0.10;;;3.30;99.90;2.00;97658.00;;;;5027818;28;20808;-72
2022/12/01 06:16:31;;;;;;;0.10;0.10;;;3.30;99.90;2.10;97659.00;;;;5012173;28;20188;-72
2022/12/01 06:19:00;;;;;;;0.10;0.10;;;3.40;99.90;2.20;97592.00;;;;5028119;28;20602;-72
2022/12/01 06:21:29;;;;;;;0.10;0.10;;;3.40;99.90;2.10;97661.00;;;;5030669;28;20262;-72
2022/12/01 06:23:57;;;;;;;0.10;0.10;;;3.40;99.90;2.00;97667.00;;;;5031385;28;20222;-72
2022/12/01 06:26:25;;;;;;;0.10;0.10;;;3.30;99.90;2.00;97664.00;;;;5031052;28;20195;-72
2022/12/01 06:28:53;;;;;;;0.10;0.10;;;3.30;99.90;1.90;97679.00;;;;5030589;28;20195;-73
2022/12/01 06:31:21;;;;;;;0.10;0.10;;;3.20;99.90;1.90;97671.00;;;;5031313;28;20218;-72
2022/12/01 06:33:53;;;;;;;0.10;0.10;;;3.20;99.90;1.90;97665.00;;;;5016225;28;20219;-73
2022/12/01 06:36:21;;;;;;;0.15;0.15;;;3.20;99.90;1.90;97674.00;;;;5028929;28;20207;-72
2022/12/01 06:38:50;;;;;;;0.10;0.10;;;3.20;99.90;1.90;97685.00;;;;5027113;28;20199;-72
2022/12/01 06:41:18;;;;;;;0.10;0.10;;;3.20;99.90;1.90;97698.00;;;;5030980;28;20658;-73
2022/12/01 06:43:46;;;;;;;0.20;0.20;;;3.20;99.90;1.90;97687.00;;;;5030061;28;20624;-73
2022/12/01 06:46:15;;;;;;;0.10;0.10;;;3.20;99.90;1.90;97610.00;;;;5031068;28;20198;-73
2022/12/01 06:48:43;;;;;;;0.10;0.10;;;3.20;99.90;1.90;97677.00;;;;5031588;28;20199;-73
2022/12/01 06:51:11;;;;;;;0.10;0.10;;;3.20;99.90;1.90;97681.00;;;;5034113;28;20227;-73
2022/12/01 06:53:39;;;;;;;0.10;0.10;;;3.20;99.90;1.80;97678.00;;;;5034683;28;20210;-73
2022/12/01 06:56:09;;;;;;;0.10;0.10;;;3.20;99.90;1.70;97677.00;;;;5035130;28;20287;-72
2022/12/01 06:58:37;;;;;;;0.10;0.10;;;3.20;99.90;1.80;97675.00;;;;5034779;28;20242;-73
2022/12/01 07:01:10;;;;;;;0.10;0.10;;;3.10;99.90;1.80;97696.00;;;;5035597;28;20206;-72
2022/12/01 07:03:38;;;;;;;0.10;0.10;;;3.20;99.90;1.90;97696.00;;;;5034981;28;20223;-72
2022/12/01 07:06:06;;;;;;;0.10;0.10;;;3.20;99.90;1.90;97696.00;;;;5035544;28;20194;-72
2022/12/01 07:08:35;;;;;;;0.10;0.10;;;3.20;99.90;1.80;97707.00;;;;5029180;28;20265;-74
2022/12/01 07:11:07;;;;;;;0.10;0.10;;;3.20;99.90;1.80;97705.00;;;;5015143;28;20219;-74
2022/12/01 07:13:36;;;;;;;0.10;0.10;;;3.20;99.90;1.50;97703.00;;;;5022145;28;20214;-74
2022/12/01 07:16:06;;;;;;;0.10;0.10;;;3.10;99.90;1.80;97704.00;;;;5035152;28;20199;-74
2022/12/01 07:18:37;;;;;;;0.10;0.10;;;3.10;99.90;1.80;97714.00;;;;5035059;28;20195;-74
2022/12/01 07:21:08;;;;;;;0.10;0.10;;;3.10;99.90;1.70;97702.00;;;;5036691;28;20199;-73
2022/12/01 07:23:36;;;;;;;0.10;0.10;;;3.10;99.90;1.70;97706.00;;;;5035345;28;20210;-74
2022/12/01 07:26:07;;;;;;;0.10;0.10;;;3.10;99.90;1.70;97708.00;;;;5035713;28;20190;-74
2022/12/01 07:28:37;;;;;;;0.10;0.10;;;3.10;99.90;1.70;97711.00;;;;5035105;28;20233;-74
2022/12/01 07:31:09;;;;;;;0.10;0.10;;;3.10;99.90;1.70;97698.00;;;;5035721;28;20195;-73
2022/12/01 07:33:37;;;;;;;0.10;0.10;;;3.10;99.90;1.70;97696.00;;;;5045748;28;20210;-74
2022/12/01 07:36:07;;;;;;;0.10;0.10;;;3.10;99.90;1.70;97690.00;;;;5037248;28;20193;-74
2022/12/01 07:38:36;;;;;;;0.10;0.10;;;3.10;99.90;1.80;97716.00;;;;5035812;28;20670;-74
2022/12/01 07:41:07;;;;;;;0.10;0.10;;;3.10;99.90;1.80;97723.00;;;;5035747;28;20231;-74
2022/12/01 07:43:37;;;;;;;0.10;0.10;;;3.10;99.90;1.80;97732.00;;;;5035419;28;20269;-74
2022/12/01 07:46:08;;;;;;;0.10;0.10;;;3.10;99.90;1.80;97707.00;;;;5035454;28;20666;-74
2022/12/01 07:48:38;;;;;;;0.10;0.10;;;3.20;99.90;1.80;97728.00;;;;5024567;28;20203;-74
2022/12/01 07:51:08;;;;;;;0.10;0.10;;;3.20;99.90;1.80;97744.00;;;;5033253;28;20667;-74
2022/12/01 07:53:37;;;;;;;0.10;0.10;;;3.20;99.90;1.90;97718.00;;;;5034431;28;20207;-74
2022/12/01 07:56:06;;;;;;;0.00;0.00;;;3.20;99.90;1.90;97718.00;;;;5032414;28;20203;-74
2022/12/01 07:58:37;;;;;;;0.10;0.10;;;3.20;99.90;1.90;97725.00;;;;5034250;28;20198;-74
2022/12/01 08:01:09;;;;;;;0.10;0.10;;;3.30;99.90;1.90;97668.00;;;;5034526;28;20195;-74
2022/12/01 08:03:38;;;;;;;0.10;0.10;;;3.30;99.90;1.90;97721.00;;;;5035308;28;20211;-74
2022/12/01 08:06:08;;;;;;;0.10;0.10;;;3.30;99.90;1.90;97649.00;;;;5033761;28;20601;-74
2022/12/01 08:08:40;;;;;;;0.10;0.10;;;3.30;99.90;2.00;97729.00;;;;5032863;28;20249;-74
2022/12/01 08:11:13;;;;;;;0.10;0.10;;;3.30;99.90;1.90;97714.00;;;;5033436;28;20241;-73
2022/12/01 08:13:43;;;;;;;0.10;0.10;;;3.30;99.90;2.00;97733.00;;;;5033678;28;20640;-74
2022/12/01 08:16:14;;;;;;;0.10;0.10;;;3.30;99.90;2.00;97747.00;;;;5032202;28;20203;-74
2022/12/01 08:18:44;;;;;;;0.10;0.10;;;3.30;99.90;2.00;97731.00;;;;5032394;28;20191;-74
2022/12/01 08:21:15;;;;;;;0.10;0.10;;;3.30;99.90;2.10;97663.00;;;;5033295;28;20195;-74
2022/12/01 08:23:44;;;;;;;0.10;0.10;;;3.30;99.90;2.10;97736.00;;;;5032320;28;20223;-73
2022/12/01 08:26:16;;;;;;;0.10;0.10;;;3.40;99.90;2.10;97721.00;;;;5020713;28;20249;-74
2022/12/01 08:28:47;;;;;;;0.10;0.10;;;3.40;99.90;2.20;97704.00;;;;5034585;28;20198;-73
2022/12/01 08:31:19;;;;;;;0.10;0.10;;;3.40;99.90;2.20;97718.00;;;;5029499;28;20187;-74
2022/12/01 08:33:49;;;;;;;0.10;0.10;;;3.40;99.90;2.20;97715.00;;;;5032841;28;20289;-74
2022/12/01 08:36:18;;;;;;;0.10;0.10;;;3.50;99.90;2.20;97706.00;;;;5033162;28;20198;-74
2022/12/01 08:38:48;;;;;;;0.10;0.10;;;3.50;99.90;2.20;97662.00;;;;5032439;28;20209;-74
2022/12/01 08:41:17;;;;;;;0.10;0.10;;;3.50;99.90;2.20;97707.00;;;;5032561;28;20198;-74
2022/12/01 08:43:46;;;;;;;0.10;0.10;;;3.60;99.90;2.20;97728.00;;;;5033304;28;20722;-74
2022/12/01 08:46:33;;;;;;;0.10;0.10;;;3.60;99.90;2.20;97713.00;;;;5032970;28;20219;-73
2022/12/01 08:49:02;;;;;;;0.13;0.13;;;3.50;99.90;2.20;97721.00;;;;5032979;28;20709;-74
2022/12/01 08:51:31;;;;;;;0.10;0.10;;;3.40;99.90;2.20;97726.00;;;;5033126;28;20207;-74
2022/12/01 08:54:01;;;;;;;0.10;0.10;;;3.40;99.90;2.20;97717.00;;;;5032691;28;20234;-74
2022/12/01 08:56:32;;;;;;;0.10;0.10;;;3.50;99.90;2.10;97729.00;;;;5032337;28;20199;-73
2022/12/01 08:59:02;;;;;;;0.10;0.10;;;3.40;99.90;2.10;97701.00;;;;5032380;28;20597;-74
2022/12/01 09:01:31;;;;;;;0.10;0.10;;;3.40;99.90;2.10;97725.00;;;;5031475;28;20576;-74
2022/12/01 09:04:07;;;;;;;0.10;0.10;;;3.40;99.90;2.00;97716.00;;;;5032191;28;20223;-74
2022/12/01 09:06:42;;;;;;;0.10;0.10;;;3.40;99.90;2.00;97735.00;;;;5032251;28;20209;-74
2022/12/01 09:09:15;;;;;;;0.10;0.10;;;3.40;99.90;2.00;97722.00;;;;5038384;28;20194;-74
2022/12/01 09:11:43;;;;;;;0.10;0.10;;;3.40;99.90;2.00;97723.00;;;;5012024;28;20200;-74
2022/12/01 09:14:16;;;;;;;0.10;0.10;;;3.30;99.90;2.00;97728.00;;;;5027441;28;20219;-74
2022/12/01 09:16:48;;;;;;;0.10;0.10;;;3.30;99.90;2.00;97744.00;;;;5032427;28;20191;-74
2022/12/01 09:19:18;;;;;;;0.10;0.10;;;3.30;99.90;2.00;97734.00;;;;5032033;28;20191;-74
2022/12/01 09:21:52;;;;;;;0.10;0.10;;;3.30;99.90;2.10;97746.00;;;;5032350;28;20199;-74
2022/12/01 09:24:20;;;;;;;0.10;0.10;;;3.40;99.90;2.00;97743.00;;;;5031995;28;20210;-75
2022/12/01 09:26:49;;;;;;;0.10;0.10;;;3.30;99.90;2.00;97751.00;;;;5032251;28;20244;-74
2022/12/01 09:29:18;;;;;;;0.10;0.10;;;3.30;99.90;1.90;97737.00;;;;5022272;28;20621;-75
2022/12/01 09:31:47;;;;;;;0.10;0.10;;;3.30;99.90;1.90;97735.00;;;;5028628;28;20195;-74
2022/12/01 09:34:18;;;;;;;0.10;0.10;;;3.30;99.90;2.00;97741.00;;;;5032272;28;20313;-74
2022/12/01 09:36:47;;;;;;;0.10;0.10;;;3.30;99.90;1.90;97742.00;;;;5031903;28;20249;-74
2022/12/01 09:39:18;;;;;;;0.10;0.10;;;3.30;99.90;1.90;97735.00;;;;5025028;28;20273;-74
2022/12/01 09:41:52;;;;;;;0.10;0.10;;;3.20;99.90;1.90;97756.00;;;;5030809;28;20853;-74
2022/12/01 09:44:36;;;;;;;0.10;0.10;;;3.20;99.90;1.70;97730.00;;;;5032298;28;20273;-74
2022/12/01 09:47:17;;;;;;;0.10;0.10;;;3.20;99.90;1.90;97736.00;;;;5034955;28;20659;-74
2022/12/01 09:49:56;;;;;;;0.10;0.10;;;3.20;99.90;1.80;97731.00;;;;5033159;28;20203;-74
2022/12/01 09:52:28;;;;;;;0.10;0.10;;;3.20;99.90;1.70;97729.00;;;;5031749;28;20248;-74
2022/12/01 09:55:00;;;;;;;0.10;0.10;;;3.10;99.90;1.80;97726.00;;;;5031653;28;20219;-74
2022/12/01 09:57:34;;;;;;;0.10;0.10;;;3.20;99.90;1.80;97721.00;;;;5031170;28;20257;-74
2022/12/01 10:00:14;;;;;;;0.10;0.10;;;3.20;99.90;1.90;97721.00;;;;5031561;28;20201;-74
2022/12/01 10:02:50;;;;;;;0.10;0.10;;;3.20;99.90;1.90;97725.00;;;;5019472;28;20569;-74
2022/12/01 10:05:22;;;;;;;0.10;0.10;;;3.20;99.90;1.90;97712.00;;;;5031844;28;20226;-74
2022/12/01 10:07:59;;;;;;;0.10;0.10;;;3.20;99.90;2.00;97713.00;;;;5030902;28;20222;-74
2022/12/01 10:10:33;;;;;;;0.10;0.10;;;3.30;99.90;2.00;97713.00;;;;5031609;28;20685;-74
2022/12/01 10:13:01;;;;;;;0.10;0.10;;;3.30;99.90;2.10;97703.00;;;;5031485;28;20218;-74
2022/12/01 10:15:43;;;;;;;0.10;0.10;;;3.40;99.90;2.00;97700.00;;;;5031869;28;20209;-74
2022/12/01 10:18:34;;;;;;;0.10;0.10;;;3.30;99.90;2.00;97700.00;;;;5031013;28;20194;-74
2022/12/01 10:21:14;;;;;;;0.10;0.10;;;3.30;99.90;2.00;97699.00;;;;5031499;28;20272;-74
2022/12/01 10:24:05;;;;;;;0.10;0.10;;;3.30;99.90;2.00;97711.00;;;;5030994;28;20218;-74
2022/12/01 10:26:47;;;;;;;0.10;0.10;;;3.30;99.90;1.90;97701.00;;;;5031552;28;20246;-75
2022/12/01 10:29:28;;;;;;;0.10;0.10;;;3.30;99.90;1.90;97703.00;;;;5031009;28;20222;-75
2022/12/01 10:32:04;;;;;;;0.10;0.10;;;3.30;99.90;2.00;97705.00;;;;5034063;28;20183;-75
2022/12/01 10:34:37;;;;;;;0.10;0.10;;;3.30;99.90;1.80;97691.00;;;;5023067;28;20226;-74
2022/12/01 10:37:09;;;;;;;0.10;0.10;;;3.20;99.90;1.70;97692.00;;;;5029840;28;20199;-74
2022/12/01 10:39:41;;;;;;;0.10;0.10;;;3.10;99.90;1.80;97688.00;;;;5030237;28;20206;-74
2022/12/01 10:42:17;;;;;;;0.10;0.10;;;3.10;99.90;1.90;97700.00;;;;5030748;28;20190;-75
2022/12/01 10:44:46;;;;;;;0.10;0.10;;;3.30;99.90;2.00;97683.00;;;;5022859;28;20285;-74
2022/12/01 10:47:20;;;;;;;0.15;0.15;;;3.30;99.90;1.90;97692.00;;;;5025994;28;20192;-75
2022/12/01 10:49:49;;;;;;;0.10;0.10;;;3.20;99.90;2.00;97688.00;;;;5033447;28;20260;-74
2022/12/01 10:52:35;;;;;;;0.10;0.10;;;3.20;99.90;1.90;97638.00;;;;5027392;28;20237;-74
2022/12/01 10:55:25;;;;;;;0.10;0.10;;;3.30;99.90;2.00;97692.00;;;;5030554;28;20219;-72
2022/12/01 10:57:56;;;;;;;0.10;0.10;;;3.30;99.90;2.00;97700.00;;;;5020557;28;20210;-75
2022/12/01 11:00:37;;;;;;;0.10;0.10;;;3.30;99.90;2.00;97695.00;;;;5030538;28;20203;-74
2022/12/01 11:03:31;;;;;;;0.10;0.10;;;3.30;99.90;1.90;97690.00;;;;5030367;28;20707;-74
2022/12/01 11:06:04;;;;;;;0.10;0.10;;;3.20;99.90;1.90;97694.00;;;;5030715;28;20277;-75
2022/12/01 11:08:39;;;;;;;0.10;0.10;;;3.30;99.90;1.90;97691.00;;;;5030379;28;20675;-75
2022/12/01 11:11:35;;;;;;;0.10;0.10;;;3.20;99.90;2.00;97689.00;;;;5029817;28;20203;-73
2022/12/01 11:14:17;;;;;;;0.10;0.10;;;3.20;99.90;2.00;97700.00;;;;5028999;28;20288;-72
2022/12/01 11:16:48;;;;;;;0.10;0.10;;;3.20;99.90;2.00;97688.00;;;;5030570;28;20541;-72
2022/12/01 11:19:31;;;;;;;0.10;0.10;;;3.30;99.90;2.10;97607.00;;;;5030042;28;20191;-75
2022/12/01 11:22:04;;;;;;;0.10;0.10;;;3.30;99.90;2.00;97696.00;;;;5018565;28;20191;-74
2022/12/01 11:24:43;;;;;;;0.10;0.10;;;3.30;99.90;2.00;97685.00;;;;5028736;28;20322;-73
2022/12/01 11:27:18;;;;;;;0.10;0.10;;;3.30;99.90;2.00;97674.00;;;;5016037;28;20214;-73
2022/12/01 11:29:49;;;;;;;0.10;0.10;;;3.30;99.90;2.00;97691.00;;;;5030149;28;20203;-73
2022/12/01 11:32:23;;;;;;;0.10;0.10;;;3.30;99.90;2.00;97682.00;;;;5030414;28;20195;-74
2022/12/01 11:34:58;;;;;;;0.10;0.10;;;3.30;99.90;2.00;97675.00;;;;5030308;28;20558;-75
2022/12/01 11:37:33;;;;;;;0.10;0.10;;;3.30;99.90;2.00;97689.00;;;;5033982;28;20199;-74
2022/12/01 11:40:20;;;;;;;0.10;0.10;;;3.30;99.90;2.00;97671.00;;;;5034584;28;20202;-72